General Aviation Weather

Text Reports

Enter one or more of the following location identifiers separated by a space:

Zip Code, Four-Character ICAO or Three-Character IATA airport codes.

METAR - Aviation Routine Weather Report
KMKJ - Marion, Virginia
Updated at 8:15 PM GMT on September 18, 2014 (4:15 PM EDT):
METAR KMKJ 182015Z AUTO 00000KT 10SM OVC080 20/11 A3008 RMK AO2 T02030114
TAF - Terminal Area Forecast
KMKJ - Marion, Virginia
Updated at 8:15 PM GMT on September 18, 2014 (4:15 PM EDT):
No TAF is currently available for this location.
Decoded:
No decoded TAF is available.
PIREP - Pilot Weather Report
KMKJ - Marion, Virginia
Updated at 8:15 PM GMT on September 18, 2014 (4:15 PM EDT):
No PIREP is currently available for this location.
AIRMET - Airmens Meteorological Information
KMKJ - Marion, Virginia
Updated at 8:15 PM GMT on September 18, 2014 (4:15 PM EDT):
No AIRMET is currently available for this location.
SIGMET - Significant Meteorological Information
KMKJ - Marion, Virginia
Updated at 8:15 PM GMT on September 18, 2014 (4:15 PM EDT):
No SIGMET is currently available for this location.
NOTAM - Notice to Airmen
KMKJ - Marion, Virginia
Updated at 8:15 PM GMT on September 18, 2014 (4:15 PM EDT):
No NOTAM is currently available for this location.
Forecast Area
KMKJ - Marion, Virginia
Updated at 8:15 PM GMT on September 18, 2014 (4:15 PM EDT):
No NOTAM is currently available for this location.
Aviation Weather Maps